Time;durP1;ratioP1;P1;durP2;ratioP2;P2;SDS_P1;SDS_P2;PMS_P1;PMS_P2;Temp;Humidity;BMP_temperature;BMP_pressure;BME280_temperature;BME280_humidity;BME280_pressure;Samples;Min_cycle;Max_cycle;Signal;HPM_P1;HPM_P2
2023/10/17 00:02:27;;;;;;;4.47;4.07;;;8.70;1.00;;;;;;6307868;22;20426;-36
2023/10/17 00:04:52;;;;;;;5.33;4.70;;;8.60;1.00;;;;;;6309074;22;20389;-38
2023/10/17 00:07:20;;;;;;;4.93;4.43;;;8.50;1.00;;;;;;6308911;22;20438;-37
2023/10/17 00:09:47;;;;;;;4.37;3.97;;;8.40;1.00;;;;;;6307724;22;20152;-36
2023/10/17 00:17:19;;;;;;;4.87;4.40;;;8.20;1.00;;;;;;6308792;22;20164;-37
2023/10/17 00:19:45;;;;;;;5.30;4.40;;;8.10;1.00;;;;;;6308872;22;20413;-37
2023/10/17 00:22:16;;;;;;;4.87;4.47;;;8.10;1.00;;;;;;6307685;22;20448;-37
2023/10/17 00:24:46;;;;;;;4.43;4.03;;;8.00;1.00;;;;;;6309667;22;20159;-37
2023/10/17 00:27:11;;;;;;;4.43;4.03;;;7.90;1.00;;;;;;6308863;22;20386;-37
2023/10/17 00:29:37;;;;;;;4.70;4.30;;;7.80;1.00;;;;;;6308683;22;20374;-37
2023/10/17 00:32:03;;;;;;;5.57;5.07;;;7.80;1.00;;;;;;6308200;22;20155;-36
2023/10/17 00:34:28;;;;;;;5.10;4.60;;;7.70;1.00;;;;;;6308459;22;20539;-37
2023/10/17 00:39:36;;;;;;;6.10;4.80;;;7.60;1.00;;;;;;6310050;22;20238;-37
2023/10/17 00:44:33;;;;;;;4.40;4.00;;;7.60;1.00;;;;;;6309249;22;20632;-35
2023/10/17 00:46:59;;;;;;;4.60;4.10;;;7.50;1.00;;;;;;6311659;22;20385;-37
2023/10/17 00:49:26;;;;;;;6.20;5.60;;;7.50;1.00;;;;;;6284637;22;20770;-36
2023/10/17 00:51:55;;;;;;;5.37;4.40;;;7.40;1.00;;;;;;6258227;22;20475;-36
2023/10/17 00:54:24;;;;;;;4.53;4.10;;;7.40;1.00;;;;;;6311128;22;20493;-39
2023/10/17 00:56:51;;;;;;;5.03;4.40;;;7.30;1.00;;;;;;6283923;22;20401;-37
2023/10/17 00:59:17;;;;;;;4.57;4.03;;;7.30;1.00;;;;;;6283429;22;20448;-36
2023/10/17 01:01:42;;;;;;;5.07;4.33;;;7.30;1.00;;;;;;6311219;22;20401;-38
2023/10/17 01:04:13;;;;;;;4.80;4.33;;;7.20;1.00;;;;;;6309995;22;20132;-37
2023/10/17 01:06:38;;;;;;;5.67;4.93;;;7.20;1.00;;;;;;6310594;22;20148;-37
2023/10/17 01:09:19;;;;;;;5.40;4.90;;;7.20;1.00;;;;;;6310232;22;20396;-37
2023/10/17 01:11:45;;;;;;;4.50;4.10;;;7.20;1.00;;;;;;6310942;22;20233;-37
2023/10/17 01:14:18;;;;;;;4.63;4.10;;;7.20;1.00;;;;;;6310947;22;20868;-37
2023/10/17 01:16:45;;;;;;;4.50;4.10;;;7.10;1.00;;;;;;6284867;22;20445;-36
2023/10/17 01:19:11;;;;;;;5.60;4.30;;;7.10;1.00;;;;;;6310757;22;20373;-37
2023/10/17 01:21:40;;;;;;;4.27;3.87;;;7.10;1.00;;;;;;6311424;22;20453;-40
2023/10/17 01:29:53;;;;;;;5.03;4.53;;;7.00;1.00;;;;;;6309192;22;20737;-37
2023/10/17 01:32:21;;;;;;;4.87;4.20;;;7.00;1.00;;;;;;6311322;22;20152;-40
2023/10/17 01:34:47;;;;;;;4.80;4.30;;;7.00;1.00;;;;;;6311360;22;20460;-37
2023/10/17 01:37:12;;;;;;;4.80;4.20;;;6.90;1.00;;;;;;6308932;22;20477;-37
2023/10/17 01:39:38;;;;;;;4.70;4.20;;;6.90;1.00;;;;;;6308551;22;20465;-37
2023/10/17 01:42:05;;;;;;;4.90;4.17;;;6.90;1.00;;;;;;6310055;22;20159;-37
2023/10/17 01:44:31;;;;;;;5.03;3.80;;;6.90;1.00;;;;;;6309424;22;20148;-37
2023/10/17 01:46:56;;;;;;;4.70;4.30;;;6.90;1.00;;;;;;6309726;22;20389;-37
2023/10/17 01:49:22;;;;;;;5.07;4.20;;;6.80;1.00;;;;;;6309529;22;20385;-45
2023/10/17 01:51:49;;;;;;;4.80;4.40;;;6.80;1.00;;;;;;6310468;22;20152;-37
2023/10/17 01:54:16;;;;;;;5.03;4.40;;;6.70;1.00;;;;;;6309873;22;20136;-36
2023/10/17 01:56:47;;;;;;;4.77;4.23;;;6.70;1.00;;;;;;6311640;22;20485;-37
2023/10/17 01:59:13;;;;;;;5.10;3.97;;;6.70;1.00;;;;;;6311331;22;20482;-37
2023/10/17 02:01:42;;;;;;;4.90;4.43;;;6.70;1.00;;;;;;6310182;22;20828;-37
2023/10/17 02:04:13;;;;;;;5.03;4.57;;;6.60;1.00;;;;;;6309996;22;20413;-36
2023/10/17 02:07:06;;;;;;;4.73;4.00;;;6.60;1.00;;;;;;6310945;22;20689;-37
2023/10/17 02:12:00;;;;;;;4.60;4.20;;;6.50;1.00;;;;;;6310590;22;20797;-37
2023/10/17 02:14:26;;;;;;;4.57;4.17;;;6.50;1.00;;;;;;6310266;22;20159;-37
2023/10/17 02:16:52;;;;;;;4.40;4.00;;;6.50;1.00;;;;;;6310374;22;20381;-35
2023/10/17 02:19:25;;;;;;;4.67;4.17;;;6.50;1.00;;;;;;6310100;22;20430;-37
2023/10/17 02:21:53;;;;;;;5.30;4.70;;;6.40;1.00;;;;;;6310131;22;20406;-37
2023/10/17 02:24:19;;;;;;;4.60;4.20;;;6.40;1.00;;;;;;6309381;22;20865;-36
2023/10/17 02:27:00;;;;;;;5.37;4.43;;;6.40;1.00;;;;;;6308956;22;20428;-37
2023/10/17 02:29:28;;;;;;;4.70;4.30;;;6.40;1.00;;;;;;6308503;22;20426;-37
2023/10/17 02:31:55;;;;;;;4.67;4.23;;;6.30;1.00;;;;;;6310230;22;20390;-37
2023/10/17 02:34:23;;;;;;;5.63;4.30;;;6.30;1.00;;;;;;6309973;22;20358;-37
2023/10/17 02:36:49;;;;;;;5.67;4.63;;;6.30;1.00;;;;;;6310831;22;20480;-36
2023/10/17 02:39:15;;;;;;;4.97;4.47;;;6.30;1.00;;;;;;6309306;22;20413;-37
2023/10/17 02:41:46;;;;;;;5.10;4.60;;;6.20;1.00;;;;;;6310283;22;20430;-37
2023/10/17 02:44:19;;;;;;;5.23;4.73;;;6.20;1.00;;;;;;6309400;22;20747;-37
2023/10/17 02:46:44;;;;;;;5.30;4.80;;;6.20;1.00;;;;;;6310378;22;20351;-37
2023/10/17 02:49:13;;;;;;;4.30;3.97;;;6.20;1.00;;;;;;6309432;22;20359;-37
2023/10/17 02:51:42;;;;;;;4.57;4.17;;;6.20;1.00;;;;;;6308387;22;20166;-37
2023/10/17 02:54:12;;;;;;;4.60;4.20;;;6.10;1.00;;;;;;6308924;22;20428;-41
2023/10/17 02:56:38;;;;;;;5.17;4.30;;;6.10;1.00;;;;;;6310317;22;20718;-37
2023/10/17 02:59:09;;;;;;;4.50;4.10;;;6.10;1.00;;;;;;6309268;22;20451;-36
2023/10/17 03:01:36;;;;;;;4.90;4.50;;;6.10;1.00;;;;;;6309722;22;20398;-37
2023/10/17 03:04:08;;;;;;;5.70;4.10;;;6.10;1.00;;;;;;6309673;22;20389;-40
2023/10/17 03:06:40;;;;;;;4.50;4.10;;;6.00;5.50;;;;;;6309270;22;20478;-37
2023/10/17 03:14:40;;;;;;;5.00;4.60;;;5.90;76.80;;;;;;6309251;22;20394;-36
2023/10/17 03:17:06;;;;;;;4.97;4.50;;;5.90;99.90;;;;;;6309643;22;20397;-44
2023/10/17 03:19:33;;;;;;;4.93;4.50;;;5.90;99.90;;;;;;6309251;22;20366;-37
2023/10/17 03:24:45;;;;;;;4.60;4.20;;;5.90;99.90;;;;;;6284753;22;20381;-35
2023/10/17 03:27:22;;;;;;;4.73;4.23;;;5.80;99.90;;;;;;6307741;22;20381;-36
2023/10/17 03:29:48;;;;;;;6.33;4.77;;;5.80;99.90;;;;;;6308270;22;20487;-37
2023/10/17 03:32:15;;;;;;;4.50;4.10;;;5.80;99.90;;;;;;6281263;22;20390;-37
2023/10/17 03:34:44;;;;;;;5.27;4.87;;;5.90;99.90;;;;;;6308156;22;20139;-37
2023/10/17 03:39:53;;;;;;;4.97;4.40;;;5.90;99.90;;;;;;6308906;22;20402;-36
2023/10/17 03:45:13;;;;;;;5.67;4.90;;;5.90;99.90;;;;;;6309323;22;20615;-38
2023/10/17 03:47:43;;;;;;;4.97;4.40;;;5.80;99.90;;;;;;6309949;22;20443;-36
2023/10/17 03:50:09;;;;;;;6.73;5.20;;;5.90;99.90;;;;;;6307679;22;20397;-36
2023/10/17 03:52:36;;;;;;;5.37;4.87;;;5.90;99.90;;;;;;6308915;22;20650;-37
2023/10/17 03:55:02;;;;;;;5.60;5.10;;;5.90;99.90;;;;;;6308169;22;20337;-36
2023/10/17 03:57:28;;;;;;;5.80;5.30;;;5.80;99.90;;;;;;6309269;22;20392;-37
2023/10/17 03:59:56;;;;;;;5.60;5.00;;;5.90;99.90;;;;;;6307865;22;20706;-40
2023/10/17 04:02:24;;;;;;;6.23;5.67;;;5.80;99.90;;;;;;6307412;22;20561;-37
2023/10/17 04:04:54;;;;;;;6.30;5.00;;;5.80;99.90;;;;;;6305492;22;20439;-38
2023/10/17 04:08:04;;;;;;;5.77;5.10;;;5.80;99.90;;;;;;6308617;22;20343;-36
2023/10/17 04:10:40;;;;;;;8.27;6.50;;;5.80;99.90;;;;;;6308193;22;20393;-37
2023/10/17 04:13:34;;;;;;;5.77;5.27;;;5.80;99.90;;;;;;6306357;22;20389;-36
2023/10/17 04:15:54;;;;;;;6.23;5.67;;;5.80;99.90;;;;;;6307027;22;20391;-36
2023/10/17 04:18:22;;;;;;;6.20;5.60;;;5.80;99.90;;;;;;6306128;22;20378;-37
2023/10/17 04:20:48;;;;;;;6.00;5.47;;;5.80;99.90;;;;;;6280270;22;20434;-38
2023/10/17 04:23:21;;;;;;;4.60;4.20;;;5.80;99.90;;;;;;6305415;22;20706;-37
2023/10/17 04:25:50;;;;;;;6.37;5.77;;;5.80;99.90;;;;;;6306524;22;20382;-37
2023/10/17 04:28:16;;;;;;;5.80;5.30;;;5.80;99.90;;;;;;6304740;22;20844;-37
2023/10/17 04:30:48;;;;;;;5.10;4.63;;;5.80;99.90;;;;;;6304217;22;20681;-39
2023/10/17 04:33:14;;;;;;;6.73;5.73;;;5.80;99.90;;;;;;6305776;22;20382;-38
2023/10/17 04:35:46;;;;;;;7.13;6.43;;;5.80;99.90;;;;;;6304788;22;20370;-36
2023/10/17 04:43:45;;;;;;;5.70;5.10;;;5.80;99.90;;;;;;6308682;22;20383;-40
2023/10/17 04:46:11;;;;;;;5.03;4.63;;;5.80;99.90;;;;;;6307250;22;20387;-36
2023/10/17 04:48:40;;;;;;;6.43;4.90;;;5.80;99.90;;;;;;6306770;22;20780;-38
2023/10/17 04:51:20;;;;;;;5.40;4.90;;;5.80;99.90;;;;;;6305729;22;20467;-37
2023/10/17 04:53:49;;;;;;;5.60;5.10;;;5.80;99.90;;;;;;6307222;22;20890;-37
2023/10/17 04:56:22;;;;;;;6.03;4.83;;;5.80;99.90;;;;;;6306450;22;20358;-36
2023/10/17 04:58:53;;;;;;;7.33;5.30;;;5.80;99.90;;;;;;6306086;22;20679;-36
2023/10/17 05:01:36;;;;;;;5.57;5.13;;;5.80;99.90;;;;;;6306123;22;20666;-39
2023/10/17 05:04:33;;;;;;;5.83;5.30;;;5.80;99.90;;;;;;6305981;22;20594;-37
2023/10/17 06:18:17;;;;;;;7.50;6.80;;;6.20;1.00;;;;;;6270740;22;20396;-37
2023/10/17 06:30:05;;;;;;;7.23;6.50;;;6.40;1.00;;;;;;6305222;22;20429;-38
2023/10/17 06:34:14;;;;;;;10.20;7.83;;;6.60;1.00;;;;;;6305750;22;20805;-39
2023/10/17 06:36:43;;;;;;;11.73;5.03;;;6.70;1.00;;;;;;6305247;22;20495;-39
2023/10/17 06:39:24;;;;;;;10.53;6.80;;;7.50;55.10;;;;;;6305051;22;20481;-41
2023/10/17 06:41:52;;;;;;;8.17;6.57;;;7.40;1.00;;;;;;6307596;22;20433;-39
2023/10/17 06:44:24;;;;;;;7.80;5.77;;;7.60;1.00;;;;;;6307378;22;20750;-38
2023/10/17 06:54:42;;;;;;;9.20;7.93;;;8.10;99.90;;;;;;6303516;22;20428;-40
2023/10/17 06:57:23;;;;;;;9.43;7.90;;;8.30;99.90;;;;;;6306698;22;20415;-40
2023/10/17 06:59:52;;;;;;;8.50;7.60;;;8.30;99.90;;;;;;6305267;22;20378;-40
2023/10/17 07:02:28;;;;;;;9.23;7.53;;;8.40;31.10;;;;;;6306339;22;20406;-39
2023/10/17 07:05:00;;;;;;;8.93;8.03;;;8.50;1.00;;;;;;6281990;22;20590;-39
2023/10/17 07:07:39;;;;;;;8.87;7.97;;;8.60;1.00;;;;;;6306202;22;20378;-39
2023/10/17 07:13:31;;;;;;;9.80;8.10;;;8.80;1.00;;;;;;6306135;22;20390;-39
2023/10/17 07:16:04;;;;;;;9.20;8.30;;;9.00;1.00;;;;;;6308715;22;20390;-40
2023/10/17 07:23:41;;;;;;;11.33;10.20;;;9.30;99.90;;;;;;6282874;22;20366;-40
2023/10/17 07:26:12;;;;;;;10.30;9.23;;;9.30;99.90;;;;;;6303961;22;20355;-39
2023/10/17 07:28:43;;;;;;;11.07;9.97;;;9.40;99.90;;;;;;6305091;22;20491;-39
2023/10/17 07:31:12;;;;;;;10.30;9.30;;;9.50;99.90;;;;;;6305495;22;20851;-38
2023/10/17 07:33:42;;;;;;;11.10;10.00;;;9.70;99.90;;;;;;6305930;22;20468;-39
2023/10/17 07:36:16;;;;;;;11.10;10.00;;;9.80;99.90;;;;;;6307005;22;20386;-38
2023/10/17 07:38:45;;;;;;;10.10;9.10;;;9.90;99.90;;;;;;6306488;22;20766;-41
2023/10/17 07:41:14;;;;;;;10.07;9.00;;;10.00;63.40;;;;;;6305361;22;20769;-38
2023/10/17 07:43:57;;;;;;;10.53;9.20;;;10.10;36.80;;;;;;6306664;22;20408;-40
2023/10/17 07:46:26;;;;;;;10.73;9.63;;;10.20;20.00;;;;;;6306141;22;20389;-39
2023/10/17 07:49:03;;;;;;;11.27;10.17;;;10.40;1.00;;;;;;6304801;22;20670;-38
2023/10/17 07:51:29;;;;;;;11.43;10.27;;;10.60;1.00;;;;;;6307148;22;20397;-40
2023/10/17 07:53:54;;;;;;;11.77;10.57;;;10.80;1.00;;;;;;6304772;22;20386;-41
2023/10/17 07:56:21;;;;;;;10.73;9.70;;;11.00;1.00;;;;;;6276309;22;20374;-39
2023/10/17 07:58:56;;;;;;;10.37;9.37;;;11.20;1.00;;;;;;6306957;22;20262;-39
2023/10/17 08:01:32;;;;;;;11.07;9.97;;;11.50;1.00;;;;;;6306665;22;20436;-38
2023/10/17 08:04:13;;;;;;;12.23;10.17;;;11.90;1.00;;;;;;6308190;22;20373;-40
2023/10/17 08:06:42;;;;;;;10.40;9.40;;;12.30;1.00;;;;;;6283780;22;20475;-39
2023/10/17 08:09:24;;;;;;;12.17;10.30;;;12.70;1.00;;;;;;6281353;22;20813;-40
2023/10/17 08:11:53;;;;;;;10.93;9.83;;;13.00;1.00;;;;;;6307977;22;20829;-39
2023/10/17 08:14:22;;;;;;;9.77;8.87;;;13.30;1.00;;;;;;6280019;22;20362;-39
2023/10/17 08:16:49;;;;;;;10.77;8.93;;;13.40;1.00;;;;;;6307455;22;20386;-38
2023/10/17 08:19:16;;;;;;;11.10;9.10;;;13.50;1.00;;;;;;6306491;22;20470;-39
2023/10/17 08:21:49;;;;;;;8.93;8.13;;;13.60;1.00;;;;;;6306488;22;20425;-40
2023/10/17 08:24:29;;;;;;;12.13;10.93;;;13.70;1.00;;;;;;6305802;22;20387;-39
2023/10/17 08:27:13;;;;;;;10.67;9.67;;;13.70;1.00;;;;;;6305693;22;20575;-40
2023/10/17 08:29:42;;;;;;;10.70;9.60;;;13.70;1.00;;;;;;6305993;22;20422;-40
2023/10/17 08:34:55;;;;;;;10.40;9.40;;;13.80;1.00;;;;;;6307296;22;20394;-40
2023/10/17 08:37:28;;;;;;;13.33;11.00;;;13.90;1.00;;;;;;6307548;22;20848;-40
2023/10/17 08:39:54;;;;;;;11.50;10.50;;;14.10;1.00;;;;;;6308472;22;20393;-39
2023/10/17 08:42:36;;;;;;;13.67;11.20;;;14.20;1.00;;;;;;6306139;22;20698;-41
2023/10/17 08:45:04;;;;;;;17.83;11.27;;;14.10;1.00;;;;;;6305233;22;20234;-39
2023/10/17 08:47:32;;;;;;;13.70;10.73;;;14.00;1.00;;;;;;6304305;22;20654;-40
2023/10/17 08:50:05;;;;;;;10.93;9.93;;;14.00;1.00;;;;;;6274343;22;20566;-39
2023/10/17 08:52:35;;;;;;;11.37;10.17;;;14.00;1.00;;;;;;6302386;22;20385;-39
2023/10/17 08:55:02;;;;;;;9.90;8.87;;;14.00;1.00;;;;;;6305391;22;20492;-39
2023/10/17 08:57:29;;;;;;;10.20;9.20;;;14.00;1.00;;;;;;6306250;22;20379;-40
2023/10/17 09:02:43;;;;;;;10.93;9.93;;;14.20;1.00;;;;;;6282469;22;20782;-44
2023/10/17 09:05:25;;;;;;;9.93;8.97;;;14.40;1.00;;;;;;6307192;22;20350;-40
2023/10/17 09:07:55;;;;;;;10.33;9.20;;;14.60;1.00;;;;;;6259261;22;20374;-43
2023/10/17 09:10:38;;;;;;;11.17;10.07;;;14.80;1.00;;;;;;6254986;22;20387;-38
2023/10/17 09:13:14;;;;;;;9.37;8.43;;;14.90;1.00;;;;;;6307647;22;20386;-39
2023/10/17 09:15:48;;;;;;;9.27;8.30;;;15.10;1.00;;;;;;6308712;22;20439;-39
2023/10/17 09:18:14;;;;;;;9.73;8.80;;;15.30;1.00;;;;;;6306109;22;20386;-40
2023/10/17 09:20:41;;;;;;;11.13;9.43;;;15.50;1.00;;;;;;6307883;22;20358;-41
2023/10/17 09:23:28;;;;;;;8.77;7.87;;;15.80;1.00;;;;;;6306988;22;20359;-39
2023/10/17 09:26:00;;;;;;;11.10;10.00;;;16.20;1.00;;;;;;6307243;22;20784;-41
2023/10/17 09:28:28;;;;;;;10.70;9.30;;;16.50;1.00;;;;;;6307101;22;20429;-41
2023/10/17 09:31:08;;;;;;;12.53;11.33;;;16.80;1.00;;;;;;6308440;22;20392;-38
2023/10/17 09:33:43;;;;;;;11.20;9.47;;;17.00;1.00;;;;;;6306647;22;20838;-40
2023/10/17 09:36:09;;;;;;;8.27;7.57;;;17.20;1.00;;;;;;6308192;22;20700;-39
2023/10/17 09:38:45;;;;;;;10.10;9.07;;;17.40;1.00;;;;;;6306864;22;20352;-38
2023/10/17 09:41:17;;;;;;;13.30;8.97;;;17.50;1.00;;;;;;6309828;22;20406;-42
2023/10/17 09:43:45;;;;;;;8.77;8.00;;;17.60;1.00;;;;;;6308919;22;20385;-39
2023/10/17 09:46:12;;;;;;;20.27;8.27;;;17.60;1.00;;;;;;6306813;22;20476;-38
2023/10/17 09:48:44;;;;;;;9.40;7.80;;;17.70;1.00;;;;;;6308837;22;20468;-41
2023/10/17 09:51:17;;;;;;;10.23;9.23;;;17.60;1.00;;;;;;6306389;22;20389;-41
2023/10/17 09:53:45;;;;;;;9.57;8.57;;;17.70;1.00;;;;;;6306742;22;20359;-41
2023/10/17 09:56:28;;;;;;;12.90;9.13;;;17.80;1.00;;;;;;6305410;22;20358;-39
2023/10/17 09:58:59;;;;;;;13.07;8.70;;;17.90;1.00;;;;;;6255277;22;20363;-40
2023/10/17 10:01:27;;;;;;;10.03;7.50;;;17.90;1.00;;;;;;6279995;22;20441;-41
2023/10/17 10:03:56;;;;;;;9.10;6.83;;;17.90;1.00;;;;;;6280249;22;20392;-40
2023/10/17 10:06:26;;;;;;;9.80;7.87;;;17.90;1.00;;;;;;6305346;22;20392;-40
2023/10/17 10:09:01;;;;;;;13.20;7.20;;;17.90;1.00;;;;;;6306830;22;20432;-42
2023/10/17 10:11:58;;;;;;;9.53;7.50;;;18.00;1.00;;;;;;6307141;22;20354;-40
2023/10/17 10:14:23;;;;;;;10.40;9.30;;;18.00;1.00;;;;;;6280335;22;20359;-40
2023/10/17 10:16:57;;;;;;;9.70;7.93;;;18.10;1.00;;;;;;6305104;22;20471;-39
2023/10/17 10:19:24;;;;;;;10.03;7.23;;;18.20;1.00;;;;;;6306142;22;20159;-40
2023/10/17 10:21:59;;;;;;;10.13;9.13;;;18.40;1.00;;;;;;6281723;22;20437;-40
2023/10/17 10:24:28;;;;;;;9.07;7.87;;;18.60;1.00;;;;;;6307369;22;20440;-42
2023/10/17 10:27:18;;;;;;;7.73;6.90;;;18.80;1.00;;;;;;6306287;22;20383;-42
2023/10/17 10:29:54;;;;;;;9.63;8.03;;;19.10;1.00;;;;;;6304213;22;20423;-39
2023/10/17 10:32:33;;;;;;;7.20;6.17;;;19.30;1.00;;;;;;6304151;22;20794;-40
2023/10/17 10:35:00;;;;;;;11.40;7.57;;;19.50;1.00;;;;;;6307044;22;20362;-40
2023/10/17 10:37:25;;;;;;;8.53;7.53;;;19.60;1.00;;;;;;6305884;22;20455;-39
2023/10/17 10:40:16;;;;;;;8.17;7.40;;;19.70;1.00;;;;;;6307209;22;20398;-42
2023/10/17 10:42:47;;;;;;;9.50;7.00;;;19.90;1.00;;;;;;6305226;22;20214;-41
2023/10/17 10:45:36;;;;;;;7.13;6.43;;;20.00;1.00;;;;;;6306370;22;20382;-40
2023/10/17 10:48:04;;;;;;;8.13;7.33;;;20.30;1.00;;;;;;6308345;22;20401;-39
2023/10/17 10:50:32;;;;;;;9.43;7.80;;;20.80;1.00;;;;;;6306828;22;20456;-40
2023/10/17 10:53:00;;;;;;;10.80;6.80;;;21.30;1.00;;;;;;6306622;22;20355;-40
2023/10/17 10:55:26;;;;;;;8.63;7.17;;;21.70;1.00;;;;;;6308523;22;20391;-39
2023/10/17 10:57:53;;;;;;;7.10;6.40;;;22.10;1.00;;;;;;6307964;22;20393;-39
2023/10/17 11:00:19;;;;;;;6.80;6.07;;;22.20;1.00;;;;;;6308265;22;20405;-42
2023/10/17 11:02:45;;;;;;;5.60;5.00;;;22.30;1.00;;;;;;6307034;22;20434;-41
2023/10/17 11:05:14;;;;;;;5.80;5.30;;;22.30;1.00;;;;;;6308225;22;20363;-41
2023/10/17 11:07:41;;;;;;;7.53;6.17;;;22.30;1.00;;;;;;6280948;22;20547;-41
2023/10/17 11:10:07;;;;;;;6.43;5.83;;;22.30;1.00;;;;;;6280034;22;20385;-42
2023/10/17 11:12:36;;;;;;;6.87;6.27;;;22.20;1.00;;;;;;6306441;22;20406;-39
2023/10/17 11:15:16;;;;;;;6.23;5.73;;;22.20;1.00;;;;;;6304993;22;20485;-40
2023/10/17 11:17:42;;;;;;;6.30;5.37;;;22.40;1.00;;;;;;6278299;22;20385;-43
2023/10/17 11:20:17;;;;;;;5.90;5.30;;;22.60;1.00;;;;;;6305734;22;20362;-40
2023/10/17 11:22:44;;;;;;;5.13;4.70;;;22.60;1.00;;;;;;6253651;22;20426;-40
2023/10/17 11:25:27;;;;;;;6.77;6.10;;;22.50;1.00;;;;;;6276724;22;20386;-41
2023/10/17 11:28:07;;;;;;;6.07;5.57;;;22.30;1.00;;;;;;6280598;22;21000;-38
2023/10/17 11:30:40;;;;;;;6.60;5.90;;;22.00;1.00;;;;;;6248618;22;20387;-41
2023/10/17 11:33:11;;;;;;;6.50;5.90;;;21.70;99.90;;;;;;6276372;22;20438;-39
2023/10/17 11:35:37;;;;;;;6.70;6.10;;;21.60;99.90;;;;;;6274953;22;21034;-39
2023/10/17 11:38:04;;;;;;;6.80;6.10;;;21.40;99.90;;;;;;6273529;22;20402;-40
2023/10/17 11:40:44;;;;;;;7.07;6.33;;;21.40;99.90;;;;;;6275529;22;20466;-41
2023/10/17 11:43:21;;;;;;;6.93;6.03;;;21.40;99.90;;;;;;6252211;22;20183;-38
2023/10/17 11:45:47;;;;;;;7.03;6.33;;;21.50;99.90;;;;;;6275905;22;20477;-39
2023/10/17 11:48:26;;;;;;;7.10;6.40;;;21.70;99.90;;;;;;6276186;22;20355;-40
2023/10/17 11:51:17;;;;;;;6.37;5.67;;;22.00;99.90;;;;;;6275587;22;20370;-42
2023/10/17 11:54:05;;;;;;;7.33;6.73;;;22.20;99.90;;;;;;6276311;22;20387;-42
2023/10/17 11:56:32;;;;;;;7.70;6.90;;;22.20;99.90;;;;;;6250643;22;20395;-42
2023/10/17 11:58:58;;;;;;;7.20;6.47;;;22.10;99.90;;;;;;6276644;22;20406;-40
2023/10/17 12:01:24;;;;;;;7.60;6.90;;;21.90;99.90;;;;;;6274576;22;20765;-47
2023/10/17 12:04:16;;;;;;;8.17;7.47;;;21.60;99.90;;;;;;6271330;22;20482;-39
2023/10/17 12:06:40;;;;;;;7.30;6.70;;;21.40;99.90;;;;;;6271475;22;20156;-42
2023/10/17 12:09:17;;;;;;;6.50;5.90;;;21.10;99.90;;;;;;6272450;22;20351;-40
2023/10/17 12:12:02;;;;;;;6.43;5.90;;;20.90;99.90;;;;;;6273428;22;20425;-41
2023/10/17 12:14:28;;;;;;;8.33;7.37;;;20.80;99.90;;;;;;6273043;22;20398;-40
2023/10/17 12:16:54;;;;;;;8.00;7.30;;;20.70;99.90;;;;;;6274760;22;20806;-41
2023/10/17 12:19:27;;;;;;;10.30;9.30;;;20.50;99.90;;;;;;6270661;22;20244;-41
2023/10/17 12:21:54;;;;;;;9.13;8.33;;;20.30;99.90;;;;;;6273981;22;20430;-41
2023/10/17 12:24:24;;;;;;;9.80;8.80;;;20.40;99.90;;;;;;6270979;22;20452;-38
2023/10/17 12:26:50;;;;;;;9.40;8.47;;;20.50;99.90;;;;;;6272906;22;20417;-41
2023/10/17 12:29:19;;;;;;;8.40;7.63;;;20.60;99.90;;;;;;6288859;22;20441;-39
2023/10/17 12:31:45;;;;;;;9.60;8.80;;;20.60;99.90;;;;;;6302281;22;20524;-41
2023/10/17 12:34:15;;;;;;;9.20;8.30;;;20.70;99.90;;;;;;6304564;22;20713;-40
2023/10/17 12:36:41;;;;;;;8.00;7.30;;;20.70;99.90;;;;;;6306293;22;20355;-38
2023/10/17 12:39:07;;;;;;;6.83;6.07;;;20.80;99.90;;;;;;6305824;22;20476;-40
2023/10/17 12:41:36;;;;;;;8.90;8.10;;;20.90;99.90;;;;;;6306532;22;20524;-42
2023/10/17 12:44:03;;;;;;;8.27;7.23;;;20.90;99.90;;;;;;6310061;22;20393;-40
2023/10/17 12:46:30;;;;;;;7.50;6.20;;;20.90;99.90;;;;;;6282628;22;20382;-39
2023/10/17 12:48:56;;;;;;;7.97;7.17;;;20.90;99.90;;;;;;6308106;22;20390;-39
2023/10/17 12:51:28;;;;;;;8.00;7.20;;;20.90;99.90;;;;;;6281397;22;20366;-40
2023/10/17 12:53:55;;;;;;;9.63;6.97;;;20.90;99.90;;;;;;6282302;22;20367;-43
2023/10/17 12:56:20;;;;;;;21.20;7.63;;;21.00;99.90;;;;;;6280337;22;20458;-41
2023/10/17 12:58:47;;;;;;;11.33;6.50;;;21.00;99.90;;;;;;6305906;22;20163;-39
2023/10/17 13:01:17;;;;;;;10.30;6.10;;;21.00;99.90;;;;;;6306039;22;20429;-39
2023/10/17 13:03:52;;;;;;;8.73;7.57;;;20.90;99.90;;;;;;6307354;22;20438;-42
2023/10/17 13:06:25;;;;;;;9.93;7.80;;;20.70;99.90;;;;;;6306251;22;20346;-38
2023/10/17 13:09:00;;;;;;;8.23;6.73;;;20.50;99.90;;;;;;6307193;22;20355;-38
2023/10/17 13:11:30;;;;;;;12.07;8.20;;;20.30;99.90;;;;;;6280583;22;20428;-39
2023/10/17 13:13:59;;;;;;;9.87;7.93;;;20.20;99.90;;;;;;6308416;22;20389;-38
2023/10/17 13:16:28;;;;;;;7.13;6.53;;;20.10;99.90;;;;;;6307381;22;20580;-39
2023/10/17 13:19:00;;;;;;;7.87;6.87;;;20.00;99.90;;;;;;6306949;22;20412;-42
2023/10/17 13:21:25;;;;;;;7.73;7.00;;;20.00;99.90;;;;;;6280088;22;20844;-42
2023/10/17 13:23:51;;;;;;;6.67;6.07;;;20.00;99.90;;;;;;6279006;22;20446;-38
2023/10/17 13:26:20;;;;;;;7.73;6.80;;;19.90;99.90;;;;;;6306757;22;20147;-39
2023/10/17 13:28:46;;;;;;;6.63;5.93;;;19.80;99.90;;;;;;6306990;22;20469;-39
2023/10/17 13:31:12;;;;;;;7.70;6.47;;;19.80;99.90;;;;;;6281727;22;20430;-40
2023/10/17 13:33:38;;;;;;;6.87;6.30;;;19.80;99.90;;;;;;6305997;22;20845;-50
2023/10/17 13:36:06;;;;;;;8.20;7.40;;;19.90;99.90;;;;;;6303665;22;20378;-42
2023/10/17 13:38:32;;;;;;;8.30;6.63;;;20.00;99.90;;;;;;6303953;22;20382;-39
2023/10/17 13:41:06;;;;;;;8.97;7.00;;;20.00;99.90;;;;;;6307011;22;20430;-41
2023/10/17 13:43:33;;;;;;;7.03;6.33;;;20.10;99.90;;;;;;6281085;22;20381;-39
2023/10/17 13:46:00;;;;;;;7.10;6.40;;;20.20;99.90;;;;;;6277885;22;20397;-39
2023/10/17 13:48:27;;;;;;;9.73;8.73;;;20.30;99.90;;;;;;6304055;22;20392;-39
2023/10/17 13:50:52;;;;;;;11.30;8.50;;;20.30;99.90;;;;;;6302986;22;20469;-42
2023/10/17 13:53:18;;;;;;;9.60;8.60;;;20.30;99.90;;;;;;6305568;22;20557;-39
2023/10/17 13:55:45;;;;;;;9.03;8.23;;;20.20;99.90;;;;;;6305494;22;20298;-43
2023/10/17 13:58:11;;;;;;;7.10;6.30;;;20.50;99.90;;;;;;6279424;22;20159;-40
2023/10/17 14:00:43;;;;;;;7.10;6.50;;;21.20;99.90;;;;;;6305473;22;20376;-39
2023/10/17 14:03:13;;;;;;;5.80;5.30;;;22.20;1.00;;;;;;6304306;22;20382;-40
2023/10/17 14:05:48;;;;;;;7.27;6.57;;;23.40;1.00;;;;;;6277340;22;20390;-39
2023/10/17 14:08:17;;;;;;;10.70;7.00;;;24.00;1.00;;;;;;6303135;22;20777;-40
2023/10/17 14:10:46;;;;;;;7.13;6.43;;;24.10;1.00;;;;;;6302428;22;20402;-40
2023/10/17 14:13:16;;;;;;;9.30;7.30;;;24.00;1.00;;;;;;6303971;22;20817;-41
2023/10/17 14:15:42;;;;;;;6.50;5.97;;;23.70;99.90;;;;;;6303359;22;20365;-42
2023/10/17 14:18:14;;;;;;;8.03;6.87;;;23.20;99.90;;;;;;6303510;22;20358;-43
2023/10/17 14:21:04;;;;;;;7.40;6.60;;;22.80;99.90;;;;;;6303200;22;20382;-39
2023/10/17 14:23:32;;;;;;;9.77;8.87;;;22.30;99.90;;;;;;6305001;22;20386;-39
2023/10/17 14:26:03;;;;;;;8.00;7.30;;;21.90;99.90;;;;;;6304973;22;20676;-38
2023/10/17 14:28:29;;;;;;;6.97;6.30;;;21.50;99.90;;;;;;6272814;22;20469;-41
2023/10/17 14:30:55;;;;;;;6.47;5.80;;;21.10;99.90;;;;;;6274194;22;20391;-40
2023/10/17 14:33:21;;;;;;;7.07;6.03;;;20.80;99.90;;;;;;6274806;22;20386;-40
2023/10/17 14:35:48;;;;;;;7.13;6.43;;;20.70;99.90;;;;;;6249210;22;20153;-41
2023/10/17 14:38:14;;;;;;;7.33;5.83;;;20.50;99.90;;;;;;6276555;22;20594;-40
2023/10/17 14:40:41;;;;;;;6.50;5.77;;;20.30;99.90;;;;;;6276291;22;20778;-41
2023/10/17 14:43:14;;;;;;;6.53;5.93;;;20.20;99.90;;;;;;6249165;22;20399;-39
2023/10/17 14:45:41;;;;;;;8.70;7.17;;;20.10;99.90;;;;;;6247076;22;20589;-42
2023/10/17 14:48:09;;;;;;;10.93;6.97;;;19.90;99.90;;;;;;6275248;22;20356;-42
2023/10/17 14:50:34;;;;;;;7.43;6.53;;;19.80;99.90;;;;;;6247145;22;20387;-40
2023/10/17 14:53:01;;;;;;;8.90;7.07;;;19.60;99.90;;;;;;6274440;22;20411;-43
2023/10/17 14:55:28;;;;;;;10.30;7.03;;;19.40;99.90;;;;;;6221465;22;20157;-39
2023/10/17 14:57:53;;;;;;;8.10;6.90;;;19.30;99.90;;;;;;6245594;22;20418;-41
2023/10/17 15:00:20;;;;;;;9.50;7.70;;;19.30;99.90;;;;;;6274320;22;20513;-42
2023/10/17 15:02:47;;;;;;;8.27;6.83;;;19.10;99.90;;;;;;6278262;22;20563;-40
2023/10/17 15:05:14;;;;;;;9.80;7.13;;;19.10;99.90;;;;;;6275134;22;20379;-39
2023/10/17 15:07:41;;;;;;;7.83;6.90;;;19.10;99.90;;;;;;6248838;22;20782;-39
2023/10/17 15:10:11;;;;;;;7.57;6.60;;;19.20;99.90;;;;;;6277910;22;20351;-41
2023/10/17 15:12:41;;;;;;;7.70;6.90;;;19.30;99.90;;;;;;6276827;22;20414;-40
2023/10/17 15:15:13;;;;;;;7.93;7.10;;;19.40;99.90;;;;;;6248428;22;20826;-41
2023/10/17 15:17:43;;;;;;;8.93;8.00;;;19.60;99.90;;;;;;6274130;22;20360;-40
2023/10/17 15:20:12;;;;;;;8.90;5.90;;;19.80;99.90;;;;;;6272112;22;20410;-39
2023/10/17 15:22:42;;;;;;;7.03;6.33;;;19.90;99.90;;;;;;6271745;22;20456;-40
2023/10/17 15:25:14;;;;;;;7.77;6.97;;;20.10;99.90;;;;;;6244796;22;20642;-39
2023/10/17 15:27:44;;;;;;;6.67;5.70;;;20.10;99.90;;;;;;6273827;22;20388;-41
2023/10/17 15:30:12;;;;;;;7.63;7.03;;;20.10;99.90;;;;;;6240574;22;20481;-40
2023/10/17 15:32:38;;;;;;;7.60;6.80;;;20.00;99.90;;;;;;6268946;22;20658;-38